createdAt,value
2022-09-22T00:01:39.285Z,6.47
2022-09-22T00:04:10.082Z,6.27
2022-09-22T00:06:41.020Z,6.03
2022-09-22T00:09:12.944Z,6.53
2022-09-22T00:11:44.035Z,6.10
2022-09-22T00:14:15.455Z,6.47
2022-09-22T00:16:47.857Z,6.67
2022-09-22T00:19:20.066Z,6.80
2022-09-22T00:21:48.962Z,7.00
2022-09-22T00:24:18.521Z,6.40
2022-09-22T00:26:46.935Z,6.23
2022-09-22T00:29:17.067Z,7.10
2022-09-22T00:31:46.851Z,7.23
2022-09-22T00:34:18.318Z,7.50
2022-09-22T00:36:47.482Z,7.17
2022-09-22T00:39:17.754Z,7.20
2022-09-22T00:41:49.721Z,6.90
2022-09-22T00:44:42.670Z,7.43
2022-09-22T00:47:22.701Z,7.40
2022-09-22T00:49:55.124Z,6.77
2022-09-22T00:52:28.622Z,7.63
2022-09-22T00:54:59.645Z,7.50
2022-09-22T00:57:32.233Z,8.70
2022-09-22T01:00:02.594Z,8.10
2022-09-22T01:02:33.466Z,7.60
2022-09-22T01:05:01.735Z,8.13
2022-09-22T01:07:31.555Z,8.87
2022-09-22T01:09:59.928Z,8.47
2022-09-22T01:12:30.871Z,8.57
2022-09-22T01:15:22.659Z,8.50
2022-09-22T01:18:15.354Z,9.30
2022-09-22T01:21:26.151Z,9.23
2022-09-22T01:24:34.678Z,8.67
2022-09-22T01:27:32.461Z,9.87
2022-09-22T01:30:22.479Z,8.97
2022-09-22T01:33:06.283Z,10.27
2022-09-22T01:35:45.967Z,9.60
2022-09-22T01:38:19.953Z,10.43
2022-09-22T01:40:52.601Z,9.30
2022-09-22T01:43:33.035Z,9.50
2022-09-22T01:46:08.205Z,10.03
2022-09-22T01:48:38.360Z,9.00
2022-09-22T01:51:14.048Z,9.93
2022-09-22T01:53:47.903Z,9.53
2022-09-22T01:56:19.512Z,9.60
2022-09-22T01:58:51.136Z,10.40
2022-09-22T02:01:24.193Z,10.17
2022-09-22T02:04:01.751Z,10.53
2022-09-22T02:06:37.373Z,10.27
2022-09-22T02:09:11.031Z,9.77
2022-09-22T02:11:39.808Z,11.07
2022-09-22T02:14:08.741Z,9.93
2022-09-22T02:16:38.677Z,11.30
2022-09-22T02:19:13.481Z,12.07
2022-09-22T02:21:45.918Z,11.50
2022-09-22T02:24:32.192Z,12.43
2022-09-22T02:27:03.931Z,12.17
2022-09-22T02:29:36.117Z,13.17
2022-09-22T02:32:10.732Z,13.50
2022-09-22T02:34:39.589Z,14.30
2022-09-22T02:37:18.975Z,13.67
2022-09-22T02:39:57.920Z,14.97
2022-09-22T02:42:30.568Z,16.30
2022-09-22T02:45:06.981Z,17.70
2022-09-22T02:47:42.264Z,16.70
2022-09-22T02:50:13.317Z,17.60
2022-09-22T02:52:42.166Z,17.60
2022-09-22T02:55:12.242Z,14.43
2022-09-22T02:57:40.505Z,15.77
2022-09-22T03:00:10.018Z,15.33
2022-09-22T03:02:39.678Z,15.57
2022-09-22T03:05:08.867Z,15.33
2022-09-22T03:07:37.112Z,14.43
2022-09-22T03:10:06.701Z,15.87
2022-09-22T03:12:34.937Z,14.27
2022-09-22T03:15:03.114Z,15.63
2022-09-22T03:17:32.877Z,14.87
2022-09-22T03:20:02.732Z,14.67
2022-09-22T03:22:30.818Z,14.40
2022-09-22T03:24:59.293Z,12.43
2022-09-22T03:27:27.597Z,13.70
2022-09-22T03:29:55.844Z,12.97
2022-09-22T03:32:23.986Z,13.37
2022-09-22T03:34:52.109Z,13.13
2022-09-22T03:37:21.662Z,11.97
2022-09-22T03:39:49.851Z,12.70
2022-09-22T03:42:18.340Z,12.83
2022-09-22T03:44:46.633Z,12.23
2022-09-22T03:47:14.733Z,12.50
2022-09-22T03:49:43.015Z,12.90
2022-09-22T03:52:11.395Z,12.73
2022-09-22T03:54:40.844Z,12.30
2022-09-22T03:57:09.104Z,12.20
2022-09-22T03:59:37.233Z,11.93
2022-09-22T04:02:05.481Z,12.23
2022-09-22T04:04:33.752Z,12.20
2022-09-22T04:07:07.458Z,11.73
2022-09-22T04:09:35.947Z,12.40
2022-09-22T04:12:06.494Z,11.53
2022-09-22T04:14:34.630Z,11.40
2022-09-22T04:17:05.223Z,11.83
2022-09-22T04:19:35.785Z,10.83
2022-09-22T04:22:04.302Z,12.43
2022-09-22T04:24:33.779Z,11.70
2022-09-22T04:27:19.092Z,11.80
2022-09-22T04:29:48.983Z,12.23
2022-09-22T04:32:17.242Z,12.00
2022-09-22T04:34:45.529Z,12.00
2022-09-22T04:37:13.832Z,13.30
2022-09-22T04:39:42.644Z,11.60
2022-09-22T04:42:10.908Z,11.97
2022-09-22T04:44:39.059Z,12.50
2022-09-22T04:47:08.765Z,12.50
2022-09-22T04:49:36.870Z,12.50
2022-09-22T04:52:05.844Z,12.80
2022-09-22T04:54:33.994Z,13.23
2022-09-22T04:57:02.857Z,13.13
2022-09-22T04:59:30.986Z,14.17
2022-09-22T05:02:00.156Z,13.60
2022-09-22T05:04:29.889Z,14.30
2022-09-22T05:06:59.463Z,14.83
2022-09-22T05:09:28.160Z,13.83
2022-09-22T05:11:59.581Z,13.73
2022-09-22T05:14:28.199Z,14.20
2022-09-22T05:16:56.510Z,14.33
2022-09-22T05:19:24.958Z,15.60
2022-09-22T05:21:55.039Z,15.30
2022-09-22T05:24:23.218Z,16.07
2022-09-22T05:26:51.614Z,17.63
2022-09-22T05:29:20.552Z,19.00
2022-09-22T05:31:50.817Z,18.47
2022-09-22T05:34:19.168Z,17.53
2022-09-22T05:36:47.495Z,19.97
2022-09-22T05:39:16.981Z,20.87
2022-09-22T05:41:45.076Z,20.10
2022-09-22T05:44:13.238Z,22.03
2022-09-22T05:46:41.302Z,23.43
2022-09-22T05:49:09.543Z,24.53
2022-09-22T05:51:37.650Z,24.27
2022-09-22T05:54:06.118Z,23.80
2022-09-22T05:56:35.711Z,25.30
2022-09-22T05:59:03.881Z,23.63
2022-09-22T06:01:32.062Z,24.57
2022-09-22T06:04:00.263Z,25.60
2022-09-22T06:06:28.378Z,26.77
2022-09-22T06:08:56.706Z,25.50
2022-09-22T06:11:24.853Z,25.87
2022-09-22T06:13:54.316Z,27.47
2022-09-22T06:16:22.472Z,28.63
2022-09-22T06:18:50.694Z,29.33
2022-09-22T06:21:18.858Z,31.70
2022-09-22T06:23:46.987Z,33.40
2022-09-22T06:26:15.134Z,35.43
2022-09-22T06:28:43.230Z,35.13
2022-09-22T06:31:15.117Z,33.43
2022-09-22T06:33:48.192Z,35.57
2022-09-22T06:36:23.953Z,34.40
2022-09-22T06:38:54.125Z,37.17
2022-09-22T06:41:22.397Z,36.03
2022-09-22T06:43:52.660Z,38.87
2022-09-22T06:46:24.583Z,38.47
2022-09-22T06:48:54.014Z,35.30
2022-09-22T06:51:22.114Z,38.03
2022-09-22T06:53:52.036Z,38.17
2022-09-22T06:56:20.594Z,34.73
2022-09-22T06:59:08.899Z,32.07
2022-09-22T07:01:39.238Z,30.77
2022-09-22T07:04:07.912Z,30.37
2022-09-22T07:06:37.265Z,28.13
2022-09-22T07:09:06.503Z,28.37
2022-09-22T07:11:39.505Z,27.67
2022-09-22T07:14:09.113Z,26.57
2022-09-22T07:16:40.724Z,23.90
2022-09-22T07:19:09.189Z,24.57
2022-09-22T07:21:37.762Z,23.83
2022-09-22T07:24:08.408Z,26.10
2022-09-22T07:26:39.170Z,27.60
2022-09-22T07:29:13.111Z,29.07
2022-09-22T07:31:43.185Z,29.00
2022-09-22T07:34:12.743Z,29.93
2022-09-22T07:36:40.909Z,27.40
2022-09-22T07:39:11.497Z,25.30
2022-09-22T07:41:42.994Z,24.53
2022-09-22T07:44:30.791Z,23.03
2022-09-22T07:47:01.288Z,22.70
2022-09-22T07:49:29.712Z,21.87
2022-09-22T07:51:58.449Z,22.10
2022-09-22T07:54:28.303Z,21.10
2022-09-22T07:56:58.532Z,20.23
2022-09-22T07:59:27.656Z,20.03
2022-09-22T08:01:56.113Z,19.80
2022-09-22T08:04:26.703Z,19.50
2022-09-22T08:06:56.571Z,17.23
2022-09-22T08:09:25.562Z,17.43
2022-09-22T08:11:54.700Z,17.50
2022-09-22T08:14:24.274Z,16.83
2022-09-22T08:16:53.883Z,15.83
2022-09-22T08:19:25.499Z,15.13
2022-09-22T08:21:55.000Z,14.77
2022-09-22T08:24:23.914Z,15.07
2022-09-22T08:26:55.699Z,13.30
2022-09-22T08:29:24.693Z,12.07
2022-09-22T08:31:54.167Z,12.40
2022-09-22T08:34:23.125Z,12.20
2022-09-22T08:36:52.667Z,12.40
2022-09-22T08:39:20.921Z,12.30
2022-09-22T08:42:05.904Z,11.00
2022-09-22T08:44:41.904Z,10.10
2022-09-22T08:47:38.549Z,10.90
2022-09-22T08:50:42.962Z,11.53
2022-09-22T08:53:17.210Z,10.50
2022-09-22T08:55:51.951Z,9.47
2022-09-22T08:58:32.290Z,9.87
2022-09-22T09:01:18.451Z,9.73
2022-09-22T09:03:57.808Z,9.30
2022-09-22T09:06:36.598Z,9.10
2022-09-22T09:09:38.355Z,9.77
2022-09-22T09:12:35.317Z,9.23
2022-09-22T09:15:34.422Z,9.17
2022-09-22T09:18:17.918Z,8.33
2022-09-22T09:20:48.554Z,8.57
2022-09-22T09:23:19.697Z,8.20
2022-09-22T09:25:52.305Z,7.97
2022-09-22T09:28:28.039Z,7.67
2022-09-22T09:31:04.617Z,7.53
2022-09-22T09:33:43.749Z,6.83
2022-09-22T09:36:18.070Z,6.77
2022-09-22T09:38:51.004Z,6.73
2022-09-22T09:41:24.769Z,7.00
2022-09-22T09:43:55.703Z,5.90
2022-09-22T09:46:40.205Z,6.07
2022-09-22T09:49:14.377Z,5.43
2022-09-22T09:51:46.644Z,5.53
2022-09-22T09:54:18.513Z,5.80
2022-09-22T09:57:10.148Z,5.80
2022-09-22T09:59:57.893Z,5.13
2022-09-22T10:02:29.177Z,5.63
2022-09-22T10:05:00.165Z,5.37
2022-09-22T10:10:33.722Z,4.93
2022-09-22T10:13:29.465Z,5.27
2022-09-22T10:16:22.490Z,4.40
2022-09-22T10:18:53.162Z,4.30
2022-09-22T10:21:23.132Z,4.77
2022-09-22T10:23:52.522Z,4.83
2022-09-22T10:26:26.240Z,4.90
2022-09-22T10:29:19.152Z,4.50
2022-09-22T10:32:17.511Z,4.73
2022-09-22T10:34:48.522Z,3.43
2022-09-22T10:37:19.386Z,3.83
2022-09-22T10:39:50.200Z,3.70
2022-09-22T10:42:34.259Z,3.97
2022-09-22T10:45:10.192Z,4.90
2022-09-22T10:47:57.690Z,5.33
2022-09-22T10:50:59.527Z,4.07
2022-09-22T10:53:51.959Z,4.50
2022-09-22T10:56:30.844Z,4.13
2022-09-22T10:59:42.908Z,6.90
2022-09-22T11:03:04.973Z,5.10
2022-09-22T11:06:02.257Z,5.50
2022-09-22T11:08:58.327Z,6.23
2022-09-22T11:11:50.913Z,6.20
2022-09-22T11:14:36.526Z,6.07
2022-09-22T11:17:21.243Z,6.23
2022-09-22T11:20:23.141Z,6.37
2022-09-22T11:23:16.544Z,6.03
2022-09-22T11:26:04.762Z,5.90
2022-09-22T11:29:01.948Z,5.67
2022-09-22T11:31:43.209Z,5.30
2022-09-22T11:35:13.340Z,4.83
2022-09-22T11:37:53.115Z,5.20
2022-09-22T11:40:34.137Z,5.17
2022-09-22T11:43:21.736Z,5.00
2022-09-22T11:45:57.802Z,4.77
2022-09-22T11:48:44.088Z,5.10
2022-09-22T11:51:35.175Z,4.83
2022-09-22T11:54:49.522Z,4.30
2022-09-22T11:57:23.714Z,4.40
2022-09-22T11:59:56.156Z,4.60
2022-09-22T12:02:32.327Z,3.75
2022-09-22T12:05:04.652Z,4.10
2022-09-22T12:07:44.783Z,3.75
2022-09-22T12:10:22.959Z,4.05
2022-09-22T12:12:51.794Z,3.70
2022-09-22T12:15:29.793Z,4.40
2022-09-22T12:18:10.899Z,4.00
2022-09-22T12:20:55.173Z,4.00
2022-09-22T12:23:40.075Z,4.95
2022-09-22T12:26:12.484Z,5.07
2022-09-22T12:28:43.430Z,3.92
2022-09-22T12:31:14.181Z,4.45
2022-09-22T12:33:49.874Z,4.00
2022-09-22T12:36:20.000Z,4.82
2022-09-22T12:38:48.293Z,4.30
2022-09-22T12:41:21.323Z,4.43
2022-09-22T12:43:49.589Z,4.05
2022-09-22T12:46:27.824Z,4.32
2022-09-22T12:48:56.261Z,4.38
2022-09-22T12:51:34.702Z,4.23
2022-09-22T12:54:39.403Z,4.45
2022-09-22T12:57:28.675Z,4.70
2022-09-22T13:00:08.498Z,4.00
2022-09-22T13:02:44.580Z,4.00
2022-09-22T13:05:36.906Z,3.80
2022-09-22T13:08:05.479Z,3.75
2022-09-22T13:11:00.084Z,4.13
2022-09-22T13:13:42.223Z,4.32
2022-09-22T13:16:35.875Z,4.45
2022-09-22T13:19:09.923Z,4.55
2022-09-22T13:21:41.568Z,3.97
2022-09-22T13:24:27.373Z,4.55
2022-09-22T13:27:05.710Z,4.13
2022-09-22T13:29:36.410Z,4.22
2022-09-22T13:32:21.604Z,4.32
2022-09-22T13:34:49.712Z,3.70
2022-09-22T13:37:22.099Z,4.10
2022-09-22T13:39:54.369Z,4.10
2022-09-22T13:42:31.308Z,4.00
2022-09-22T13:45:06.335Z,3.95
2022-09-22T13:47:36.735Z,3.78
2022-09-22T13:50:08.321Z,3.55
2022-09-22T13:52:39.373Z,4.40
2022-09-22T13:55:13.984Z,4.13
2022-09-22T13:57:43.762Z,4.10
2022-09-22T14:00:26.315Z,3.33
2022-09-22T14:02:57.270Z,3.33
2022-09-22T14:05:28.562Z,3.25
2022-09-22T14:08:12.015Z,3.67
2022-09-22T14:10:43.505Z,3.38
2022-09-22T14:13:40.453Z,2.90
2022-09-22T14:16:21.763Z,3.40
2022-09-22T14:18:54.586Z,3.30
2022-09-22T14:21:23.448Z,3.33
2022-09-22T14:23:52.863Z,3.10
2022-09-22T14:26:36.410Z,2.90
2022-09-22T14:29:19.609Z,2.70
2022-09-22T14:31:53.666Z,3.00
2022-09-22T14:34:27.459Z,3.72
2022-09-22T14:36:56.610Z,3.22
2022-09-22T14:39:33.994Z,2.90
2022-09-22T14:42:11.999Z,3.47
2022-09-22T14:44:46.069Z,3.17
2022-09-22T14:47:26.707Z,2.97
2022-09-22T14:50:19.121Z,3.03
2022-09-22T14:52:56.981Z,2.90
2022-09-22T14:55:34.432Z,2.80
2022-09-22T14:58:13.099Z,2.95
2022-09-22T15:01:11.808Z,2.88
2022-09-22T15:03:44.747Z,2.95
2022-09-22T15:06:15.673Z,3.00
2022-09-22T15:08:49.943Z,3.00
2022-09-22T15:11:18.886Z,2.75
2022-09-22T15:13:50.774Z,3.70
2022-09-22T15:16:46.568Z,3.20
2022-09-22T15:19:16.081Z,3.08
2022-09-22T15:21:48.423Z,3.20
2022-09-22T15:24:21.298Z,3.30
2022-09-22T15:26:49.625Z,3.20
2022-09-22T15:29:17.791Z,3.60
2022-09-22T15:31:46.999Z,3.22
2022-09-22T15:34:16.629Z,3.22
2022-09-22T15:36:49.922Z,3.00
2022-09-22T15:39:21.940Z,3.72
2022-09-22T15:41:50.515Z,3.28
2022-09-22T15:44:18.993Z,3.20
2022-09-22T15:46:51.534Z,4.25
2022-09-22T15:49:26.198Z,3.47
2022-09-22T15:51:55.935Z,3.53
2022-09-22T15:54:26.098Z,3.58
2022-09-22T15:56:56.049Z,3.10
2022-09-22T15:59:28.122Z,2.58
2022-09-22T16:01:57.495Z,3.13
2022-09-22T16:04:34.218Z,2.80
2022-09-22T16:07:05.961Z,3.30
2022-09-22T16:09:34.296Z,3.25
2022-09-22T16:12:03.163Z,2.72
2022-09-22T16:14:31.383Z,3.22
2022-09-22T16:16:59.666Z,3.50
2022-09-22T16:19:31.966Z,3.30
2022-09-22T16:22:00.102Z,3.55
2022-09-22T16:24:29.002Z,2.97
2022-09-22T16:26:57.206Z,3.17
2022-09-22T16:29:25.611Z,4.07
2022-09-22T16:31:54.168Z,4.00
2022-09-22T16:34:22.371Z,3.97
2022-09-22T16:36:52.542Z,4.63
2022-09-22T16:39:20.760Z,4.82
2022-09-22T16:41:48.970Z,4.93
2022-09-22T16:44:17.326Z,4.22
2022-09-22T16:46:45.612Z,4.97
2022-09-22T16:49:17.242Z,5.03
2022-09-22T16:51:49.470Z,5.00
2022-09-22T16:54:20.183Z,5.75
2022-09-22T16:56:50.463Z,6.90
2022-09-22T16:59:21.207Z,7.30
2022-09-22T17:01:51.132Z,5.75
2022-09-22T17:04:19.979Z,5.50
2022-09-22T17:06:48.850Z,5.57
2022-09-22T17:09:19.345Z,5.57
2022-09-22T17:11:49.098Z,7.47
2022-09-22T17:14:21.047Z,6.93
2022-09-22T17:16:52.180Z,7.20
2022-09-22T17:19:22.618Z,8.87
2022-09-22T17:21:54.185Z,7.30
2022-09-22T17:24:25.194Z,6.70
2022-09-22T17:26:55.897Z,6.90
2022-09-22T17:29:26.697Z,7.33
2022-09-22T17:31:57.577Z,6.80
2022-09-22T17:34:26.059Z,6.70
2022-09-22T17:36:55.528Z,7.50
2022-09-22T17:39:27.475Z,7.10
2022-09-22T17:41:56.268Z,8.10
2022-09-22T17:44:28.355Z,12.40
2022-09-22T17:47:14.231Z,12.87
2022-09-22T17:49:59.784Z,10.90
2022-09-22T17:52:46.062Z,10.63
2022-09-22T17:55:22.059Z,9.60
2022-09-22T17:57:52.655Z,9.43
2022-09-22T18:00:22.938Z,9.23
2022-09-22T18:02:54.138Z,8.80
2022-09-22T18:05:26.787Z,8.67
2022-09-22T18:07:58.391Z,8.00
2022-09-22T18:10:32.195Z,8.53
2022-09-22T18:13:01.241Z,8.47
2022-09-22T18:15:29.565Z,9.00
2022-09-22T18:17:58.476Z,8.53
2022-09-22T18:20:27.665Z,8.90
2022-09-22T18:22:57.814Z,8.80
2022-09-22T18:25:28.177Z,8.77
2022-09-22T18:27:57.260Z,9.67
2022-09-22T18:30:25.741Z,8.97
2022-09-22T18:32:54.939Z,11.00
2022-09-22T18:35:24.091Z,11.90
2022-09-22T18:37:52.203Z,11.63
2022-09-22T18:40:20.373Z,12.07
2022-09-22T18:42:50.160Z,11.17
2022-09-22T18:45:19.380Z,11.93
2022-09-22T18:47:47.487Z,11.43
2022-09-22T18:50:16.378Z,11.17
2022-09-22T18:52:45.857Z,11.80
2022-09-22T18:55:17.295Z,10.97
2022-09-22T18:57:47.392Z,11.07
2022-09-22T19:00:21.987Z,11.07
2022-09-22T19:02:50.470Z,11.60
2022-09-22T19:05:19.232Z,11.43
2022-09-22T19:07:48.277Z,11.63
2022-09-22T19:10:21.857Z,11.53
2022-09-22T19:12:50.719Z,11.27
2022-09-22T19:15:20.855Z,11.80
2022-09-22T19:17:50.569Z,11.80
2022-09-22T19:20:23.633Z,12.07
2022-09-22T19:22:52.672Z,11.57
2022-09-22T19:25:22.287Z,12.40
2022-09-22T19:27:54.691Z,12.57
2022-09-22T19:30:28.570Z,11.77
2022-09-22T19:32:57.797Z,12.27
2022-09-22T19:35:26.414Z,12.30
2022-09-22T19:37:54.639Z,13.00
2022-09-22T19:40:25.023Z,12.97
2022-09-22T19:42:54.351Z,12.37
2022-09-22T19:45:25.557Z,13.40
2022-09-22T19:47:56.282Z,11.93
2022-09-22T19:50:24.907Z,13.87
2022-09-22T19:52:53.100Z,13.33
2022-09-22T19:55:21.807Z,14.83
2022-09-22T19:57:53.991Z,16.13
2022-09-22T20:00:26.677Z,16.30
2022-09-22T20:02:58.646Z,15.93
2022-09-22T20:05:31.763Z,16.07
2022-09-22T20:08:01.404Z,14.73
2022-09-22T20:10:31.558Z,15.60
2022-09-22T20:13:00.314Z,15.97
2022-09-22T20:15:29.933Z,14.73
2022-09-22T20:17:58.159Z,16.33
2022-09-22T20:20:26.883Z,15.83
2022-09-22T20:23:00.363Z,15.97
2022-09-22T20:25:32.094Z,16.17
2022-09-22T20:28:00.333Z,16.30
2022-09-22T20:30:30.045Z,17.27
2022-09-22T20:32:59.024Z,18.20
2022-09-22T20:35:27.254Z,16.17
2022-09-22T20:37:59.225Z,16.67
2022-09-22T20:40:28.966Z,16.87
2022-09-22T20:42:57.234Z,15.30
2022-09-22T20:45:25.453Z,17.13
2022-09-22T20:47:56.149Z,16.30
2022-09-22T20:50:24.399Z,17.00
2022-09-22T20:52:52.609Z,15.50
2022-09-22T20:55:22.419Z,16.00
2022-09-22T20:57:50.562Z,16.83
2022-09-22T21:00:18.774Z,16.57
2022-09-22T21:02:47.379Z,16.17
2022-09-22T21:05:17.404Z,16.53
2022-09-22T21:07:45.624Z,16.87
2022-09-22T21:10:31.777Z,17.00
2022-09-22T21:13:00.442Z,17.30
2022-09-22T21:15:30.088Z,16.40
2022-09-22T21:17:58.528Z,16.90
2022-09-22T21:20:28.161Z,16.60
2022-09-22T21:22:56.734Z,16.50
2022-09-22T21:25:25.318Z,16.50
2022-09-22T21:27:53.444Z,16.77
2022-09-22T21:30:21.567Z,16.23
2022-09-22T21:32:49.760Z,15.80
2022-09-22T21:35:18.487Z,16.37
2022-09-22T21:37:48.094Z,17.20
2022-09-22T21:40:17.496Z,15.67
2022-09-22T21:42:45.751Z,16.33
2022-09-22T21:45:14.021Z,16.63
2022-09-22T21:47:42.157Z,17.50
2022-09-22T21:50:11.046Z,17.80
2022-09-22T21:52:39.415Z,18.77
2022-09-22T21:55:10.273Z,17.97
2022-09-22T21:57:38.387Z,17.23
2022-09-22T22:00:09.327Z,17.03
2022-09-22T22:02:57.711Z,17.43
2022-09-22T22:05:26.887Z,16.63
2022-09-22T22:07:55.192Z,16.33
2022-09-22T22:10:24.970Z,17.47
2022-09-22T22:12:53.149Z,18.13
2022-09-22T22:15:21.222Z,17.80
2022-09-22T22:17:49.370Z,16.90
2022-09-22T22:20:17.697Z,17.67
2022-09-22T22:22:46.717Z,18.47
2022-09-22T22:25:18.530Z,19.17
2022-09-22T22:27:48.073Z,19.00
2022-09-22T22:30:18.985Z,18.47
2022-09-22T22:32:47.289Z,18.20
2022-09-22T22:35:15.628Z,18.60
2022-09-22T22:37:45.710Z,18.50
2022-09-22T22:40:13.948Z,18.23
2022-09-22T22:42:42.193Z,18.67
2022-09-22T22:45:12.253Z,18.53
2022-09-22T22:47:40.437Z,19.30
2022-09-22T22:50:10.612Z,19.07
2022-09-22T22:52:40.211Z,20.73
2022-09-22T22:55:10.424Z,19.80
2022-09-22T22:57:38.543Z,19.73
2022-09-22T23:00:08.466Z,19.90
2022-09-22T23:02:38.642Z,19.43
2022-09-22T23:05:08.477Z,20.20
2022-09-22T23:07:36.653Z,19.43
2022-09-22T23:10:08.181Z,20.83
2022-09-22T23:12:39.990Z,20.13
2022-09-22T23:15:10.640Z,19.53
2022-09-22T23:17:40.495Z,20.37
2022-09-22T23:20:10.195Z,19.23
2022-09-22T23:22:38.269Z,20.53
2022-09-22T23:25:07.094Z,19.97
2022-09-22T23:27:35.230Z,20.33
2022-09-22T23:30:03.611Z,20.30
2022-09-22T23:32:31.704Z,20.00
2022-09-22T23:35:01.703Z,18.60
2022-09-22T23:37:29.778Z,19.53
2022-09-22T23:39:58.460Z,19.23
2022-09-22T23:42:26.662Z,20.60
2022-09-22T23:44:54.723Z,19.37
2022-09-22T23:47:22.814Z,18.97
2022-09-22T23:49:50.916Z,19.97
2022-09-22T23:52:22.466Z,19.87
2022-09-22T23:54:50.578Z,18.73
2022-09-22T23:57:18.705Z,19.43
2022-09-22T23:59:46.817Z,20.67
